createdAt,value
2022-11-16T00:03:34.157Z,6.40
2022-11-16T00:06:03.667Z,6.45
2022-11-16T00:08:32.890Z,6.42
2022-11-16T00:11:12.683Z,6.46
2022-11-16T00:13:40.782Z,6.55
2022-11-16T00:16:08.544Z,6.56
2022-11-16T00:18:35.695Z,6.48
2022-11-16T00:21:05.501Z,6.50
2022-11-16T00:23:32.682Z,6.45
2022-11-16T00:26:07.551Z,6.48
2022-11-16T00:28:35.072Z,6.41
2022-11-16T00:31:04.451Z,6.56
2022-11-16T00:33:31.425Z,6.46
2022-11-16T00:35:58.174Z,6.51
2022-11-16T00:38:24.979Z,6.44
2022-11-16T00:40:51.639Z,6.37
2022-11-16T00:43:18.398Z,6.59
2022-11-16T00:45:45.374Z,6.42
2022-11-16T00:48:12.816Z,6.73
2022-11-16T00:50:40.027Z,6.76
2022-11-16T00:53:07.562Z,6.63
2022-11-16T00:55:35.002Z,6.53
2022-11-16T00:58:01.701Z,6.55
2022-11-16T01:00:28.431Z,6.46
2022-11-16T01:02:55.194Z,6.47
2022-11-16T01:05:22.695Z,6.66
2022-11-16T01:07:50.604Z,6.60
2022-11-16T01:10:20.764Z,6.59
2022-11-16T01:12:49.232Z,6.45
2022-11-16T01:15:17.907Z,6.48
2022-11-16T01:17:44.979Z,6.42
2022-11-16T01:20:20.059Z,6.46
2022-11-16T01:22:47.029Z,6.37
2022-11-16T01:25:15.128Z,6.43
2022-11-16T01:27:43.001Z,6.29
2022-11-16T01:30:12.874Z,6.44
2022-11-16T01:32:39.811Z,6.33
2022-11-16T01:35:07.057Z,6.33
2022-11-16T01:37:34.008Z,6.33
2022-11-16T01:40:00.860Z,6.35
2022-11-16T01:42:30.057Z,6.38
2022-11-16T01:45:15.880Z,6.44
2022-11-16T01:47:42.871Z,6.29
2022-11-16T01:50:13.315Z,6.40
2022-11-16T01:52:46.341Z,6.32
2022-11-16T01:55:13.527Z,6.40
2022-11-16T01:57:43.963Z,6.39
2022-11-16T02:00:13.164Z,6.45
2022-11-16T02:02:40.006Z,6.59
2022-11-16T02:05:07.700Z,6.55
2022-11-16T02:08:48.598Z,6.58
2022-11-16T02:11:27.141Z,6.56
2022-11-16T02:14:12.068Z,6.49
2022-11-16T02:16:51.894Z,6.43
2022-11-16T02:19:39.821Z,6.44
2022-11-16T02:22:48.062Z,6.47
2022-11-16T02:25:29.683Z,6.54
2022-11-16T02:28:11.411Z,6.52
2022-11-16T02:30:44.413Z,6.45
2022-11-16T02:33:16.960Z,6.65
2022-11-16T02:35:53.879Z,6.50
2022-11-16T02:38:25.979Z,6.50
2022-11-16T02:41:00.325Z,6.75
2022-11-16T02:43:37.881Z,6.61
2022-11-16T02:46:10.770Z,6.56
2022-11-16T02:48:42.416Z,6.45
2022-11-16T02:51:10.419Z,6.47
2022-11-16T02:53:42.324Z,6.43
2022-11-16T02:56:13.672Z,6.40
2022-11-16T02:58:40.557Z,6.33
2022-11-16T03:01:18.661Z,6.42
2022-11-16T03:04:01.655Z,6.60
2022-11-16T03:06:32.023Z,6.59
2022-11-16T03:09:10.324Z,6.63
2022-11-16T03:12:01.338Z,6.54
2022-11-16T03:14:54.933Z,6.47
2022-11-16T03:17:50.104Z,6.38
2022-11-16T03:20:22.604Z,6.48
2022-11-16T03:22:57.321Z,6.30
2022-11-16T03:25:26.990Z,6.51
2022-11-16T03:28:02.255Z,6.39
2022-11-16T03:30:33.739Z,6.51
2022-11-16T03:33:31.436Z,6.48
2022-11-16T03:36:09.542Z,6.43
2022-11-16T03:38:39.379Z,6.46
2022-11-16T03:41:08.929Z,6.44
2022-11-16T03:43:38.195Z,6.42
2022-11-16T03:46:05.868Z,6.47
2022-11-16T03:48:37.402Z,6.51
2022-11-16T03:51:05.080Z,6.43
2022-11-16T03:53:32.022Z,6.48
2022-11-16T03:55:58.775Z,6.52
2022-11-16T03:58:25.497Z,6.46
2022-11-16T04:00:52.922Z,6.40
2022-11-16T04:03:20.330Z,6.40
2022-11-16T04:06:08.609Z,6.37
2022-11-16T04:08:53.874Z,6.36
2022-11-16T04:11:40.533Z,6.35
2022-11-16T04:14:32.328Z,6.34
2022-11-16T04:17:17.689Z,6.23
2022-11-16T04:20:03.192Z,6.51
2022-11-16T04:22:57.003Z,6.50
2022-11-16T04:25:27.219Z,6.42
2022-11-16T04:28:13.581Z,6.66
2022-11-16T04:31:10.659Z,6.57
2022-11-16T04:33:56.836Z,6.39
2022-11-16T04:36:42.589Z,6.35
2022-11-16T04:39:09.481Z,6.19
2022-11-16T04:41:54.817Z,6.32
2022-11-16T04:44:25.937Z,6.34
2022-11-16T04:47:07.379Z,6.23
2022-11-16T04:49:34.101Z,6.29
2022-11-16T04:52:00.972Z,6.37
2022-11-16T04:54:27.713Z,6.27
2022-11-16T04:56:54.492Z,6.35
2022-11-16T04:59:21.210Z,6.31
2022-11-16T05:02:06.710Z,6.30
2022-11-16T05:04:33.425Z,6.34
2022-11-16T05:07:00.194Z,6.08
2022-11-16T05:09:26.898Z,6.32
2022-11-16T05:11:53.677Z,6.37
2022-11-16T05:14:20.375Z,6.45
2022-11-16T05:16:47.092Z,6.39
2022-11-16T05:19:32.441Z,6.42
2022-11-16T05:21:59.198Z,6.32
2022-11-16T05:24:35.154Z,6.69
2022-11-16T05:27:04.797Z,6.66
2022-11-16T05:29:31.804Z,6.45
2022-11-16T05:31:59.931Z,6.43
2022-11-16T05:34:27.141Z,6.39
2022-11-16T05:36:54.442Z,6.40
2022-11-16T05:39:21.252Z,6.31
2022-11-16T05:41:48.368Z,6.43
2022-11-16T05:44:15.910Z,6.40
2022-11-16T05:46:43.519Z,6.36
2022-11-16T05:49:12.037Z,6.35
2022-11-16T05:51:41.125Z,6.35
2022-11-16T05:54:08.807Z,6.31
2022-11-16T05:56:35.591Z,6.32
2022-11-16T05:59:02.499Z,6.19
2022-11-16T06:01:29.340Z,6.32
2022-11-16T06:03:58.882Z,6.39
2022-11-16T06:06:25.777Z,6.27
2022-11-16T06:08:52.523Z,6.38
2022-11-16T06:11:19.442Z,6.42
2022-11-16T06:13:46.235Z,6.35
2022-11-16T06:16:13.726Z,6.60
2022-11-16T06:18:42.433Z,6.68
2022-11-16T06:21:10.924Z,6.78
2022-11-16T06:23:37.655Z,6.64
2022-11-16T06:28:32.787Z,6.64
2022-11-16T06:30:59.993Z,6.36
2022-11-16T06:33:30.810Z,6.43
2022-11-16T06:36:00.304Z,6.40
2022-11-16T06:38:27.472Z,6.27
2022-11-16T06:40:57.121Z,6.63
2022-11-16T06:43:25.333Z,6.63
2022-11-16T06:45:54.043Z,6.61
2022-11-16T06:48:21.696Z,6.47
2022-11-16T06:50:50.000Z,6.58
2022-11-16T06:53:17.414Z,6.66
2022-11-16T06:55:44.246Z,6.63
2022-11-16T06:58:11.300Z,6.78
2022-11-16T07:00:38.089Z,6.85
2022-11-16T07:03:05.205Z,7.07
2022-11-16T07:05:32.396Z,6.68
2022-11-16T07:07:59.641Z,6.55
2022-11-16T07:10:26.853Z,6.72
2022-11-16T07:12:53.607Z,6.80
2022-11-16T07:15:20.807Z,6.78
2022-11-16T07:17:47.823Z,6.48
2022-11-16T07:20:14.588Z,6.72
2022-11-16T07:22:41.383Z,6.87
2022-11-16T07:25:08.751Z,6.83
2022-11-16T07:27:35.462Z,6.74
2022-11-16T07:30:02.379Z,6.48
2022-11-16T07:32:31.715Z,6.61
2022-11-16T07:34:59.652Z,6.64
2022-11-16T07:37:26.801Z,6.68
2022-11-16T07:39:53.576Z,6.69
2022-11-16T07:42:20.475Z,6.54
2022-11-16T07:44:47.262Z,6.63
2022-11-16T07:47:13.974Z,6.58
2022-11-16T07:49:40.679Z,6.63
2022-11-16T07:52:11.090Z,6.69
2022-11-16T07:54:37.968Z,6.62
2022-11-16T07:57:04.990Z,6.64
2022-11-16T07:59:31.691Z,6.94
2022-11-16T08:01:59.469Z,6.95
2022-11-16T08:04:26.397Z,6.85
2022-11-16T08:06:53.356Z,6.95
2022-11-16T08:09:20.198Z,7.01
2022-11-16T08:11:47.352Z,6.95
2022-11-16T08:14:15.648Z,7.17
2022-11-16T08:16:42.396Z,7.06
2022-11-16T08:19:09.295Z,7.07
2022-11-16T08:21:36.034Z,7.23
2022-11-16T08:24:03.342Z,7.24
2022-11-16T08:26:30.202Z,7.19
2022-11-16T08:28:57.458Z,7.21
2022-11-16T08:31:27.465Z,7.02
2022-11-16T08:33:54.440Z,7.20
2022-11-16T08:36:21.486Z,7.15
2022-11-16T08:38:50.333Z,7.33
2022-11-16T08:41:18.551Z,7.32
2022-11-16T08:43:47.488Z,7.33
2022-11-16T08:46:15.078Z,7.23
2022-11-16T08:48:42.330Z,6.99
2022-11-16T08:51:20.514Z,7.05
2022-11-16T08:53:49.591Z,6.86
2022-11-16T08:56:18.764Z,6.60
2022-11-16T08:58:52.494Z,6.46
2022-11-16T09:01:25.157Z,6.91
2022-11-16T09:03:53.300Z,6.98
2022-11-16T09:06:20.472Z,7.01
2022-11-16T09:08:47.530Z,6.94
2022-11-16T09:11:17.239Z,7.04
2022-11-16T09:13:46.032Z,6.87
2022-11-16T09:16:15.947Z,6.82
2022-11-16T09:18:43.991Z,6.82
2022-11-16T09:21:11.066Z,6.78
2022-11-16T09:23:37.852Z,6.75
2022-11-16T09:26:06.261Z,6.69
2022-11-16T09:28:33.561Z,6.86
2022-11-16T09:31:04.402Z,6.73
2022-11-16T09:33:31.925Z,6.54
2022-11-16T09:36:07.365Z,6.57
2022-11-16T09:39:14.001Z,6.65
2022-11-16T09:42:00.640Z,6.71
2022-11-16T09:44:41.554Z,6.75
2022-11-16T09:47:18.049Z,6.70
2022-11-16T09:49:53.559Z,6.47
2022-11-16T09:52:41.365Z,6.58
2022-11-16T09:55:24.727Z,6.67
2022-11-16T09:57:55.895Z,6.60
2022-11-16T10:00:23.907Z,6.68
2022-11-16T10:02:58.272Z,6.81
2022-11-16T10:05:37.664Z,6.71
2022-11-16T10:08:14.717Z,6.85
2022-11-16T10:11:23.159Z,6.86
2022-11-16T10:13:58.852Z,6.84
2022-11-16T10:16:35.655Z,6.81
2022-11-16T10:19:30.849Z,6.82
2022-11-16T10:22:04.629Z,6.81
2022-11-16T10:24:53.737Z,6.73
2022-11-16T10:27:27.708Z,6.93
2022-11-16T10:30:02.353Z,6.89
2022-11-16T10:32:37.366Z,6.90
2022-11-16T10:35:13.003Z,6.91
2022-11-16T10:37:45.802Z,6.93
2022-11-16T10:40:17.063Z,7.08
2022-11-16T10:42:46.922Z,6.95
2022-11-16T10:45:22.074Z,6.96
2022-11-16T10:48:11.519Z,7.11
2022-11-16T10:50:44.135Z,7.19
2022-11-16T10:53:16.270Z,7.14
2022-11-16T10:55:43.006Z,7.10
2022-11-16T10:58:09.800Z,7.19
2022-11-16T11:00:42.683Z,7.25
2022-11-16T11:03:10.978Z,7.13
2022-11-16T11:05:48.260Z,7.21
2022-11-16T11:08:26.125Z,7.21
2022-11-16T11:11:24.696Z,7.12
2022-11-16T11:14:09.575Z,7.05
2022-11-16T11:16:36.475Z,7.06
2022-11-16T11:19:29.015Z,6.81
2022-11-16T11:21:58.354Z,7.04
2022-11-16T11:24:44.324Z,6.76
2022-11-16T11:27:12.440Z,7.13
2022-11-16T11:29:42.651Z,7.01
2022-11-16T11:32:24.143Z,7.00
2022-11-16T11:34:54.077Z,7.13
2022-11-16T11:37:26.204Z,7.06
2022-11-16T11:40:22.463Z,7.14
2022-11-16T11:42:58.567Z,7.08
2022-11-16T11:45:32.452Z,7.07
2022-11-16T11:48:32.952Z,7.15
2022-11-16T11:51:10.864Z,7.08
2022-11-16T11:53:43.613Z,7.15
2022-11-16T11:56:12.504Z,7.08
2022-11-16T11:58:41.174Z,7.04
2022-11-16T12:01:22.191Z,7.07
2022-11-16T12:04:13.604Z,6.97
2022-11-16T12:07:09.556Z,6.92
2022-11-16T12:09:46.503Z,7.06
2022-11-16T12:12:15.931Z,7.17
2022-11-16T12:15:08.080Z,7.12
2022-11-16T12:18:06.525Z,6.93
2022-11-16T12:20:42.807Z,7.25
2022-11-16T12:23:35.490Z,7.37
2022-11-16T12:26:59.663Z,7.31
2022-11-16T12:29:40.463Z,7.03
2022-11-16T12:32:31.513Z,7.60
2022-11-16T12:35:16.826Z,7.63
2022-11-16T12:38:09.895Z,7.68
2022-11-16T12:41:21.914Z,7.61
2022-11-16T12:44:05.657Z,7.48
2022-11-16T12:46:50.814Z,7.53
2022-11-16T12:50:00.295Z,7.48
2022-11-16T12:53:11.435Z,7.46
2022-11-16T12:55:49.385Z,7.38
2022-11-16T12:58:47.284Z,7.45
2022-11-16T13:01:43.284Z,7.31
2022-11-16T13:04:24.703Z,7.49
2022-11-16T13:07:11.387Z,7.46
2022-11-16T13:09:46.473Z,7.42
2022-11-16T13:12:17.332Z,7.36
2022-11-16T13:14:49.040Z,7.32
2022-11-16T13:17:20.633Z,7.33
2022-11-16T13:20:02.546Z,7.30
2022-11-16T13:22:32.233Z,7.31
2022-11-16T13:25:24.812Z,7.12
2022-11-16T13:28:00.532Z,7.32
2022-11-16T13:30:36.613Z,7.19
2022-11-16T13:33:51.237Z,7.22
2022-11-16T13:36:43.588Z,7.26
2022-11-16T13:39:18.695Z,7.26
2022-11-16T13:42:07.216Z,7.15
2022-11-16T13:44:34.994Z,7.21
2022-11-16T13:47:07.108Z,7.23
2022-11-16T13:49:49.425Z,7.09
2022-11-16T13:52:23.863Z,7.20
2022-11-16T13:54:55.679Z,7.20
2022-11-16T13:57:30.069Z,7.23
2022-11-16T14:00:02.914Z,7.18
2022-11-16T14:02:36.476Z,7.06
2022-11-16T14:05:13.133Z,7.03
2022-11-16T14:07:44.945Z,7.11
2022-11-16T14:10:32.109Z,6.93
2022-11-16T14:13:04.548Z,7.11
2022-11-16T14:15:38.938Z,7.02
2022-11-16T14:18:09.390Z,7.05
2022-11-16T14:20:54.760Z,6.89
2022-11-16T14:23:47.158Z,7.16
2022-11-16T14:26:35.267Z,7.06
2022-11-16T14:29:14.376Z,7.08
2022-11-16T14:31:48.795Z,7.05
2022-11-16T14:34:32.831Z,7.04
2022-11-16T14:37:00.693Z,7.06
2022-11-16T14:39:32.043Z,7.07
2022-11-16T14:42:06.036Z,7.11
2022-11-16T14:44:39.146Z,6.90
2022-11-16T14:47:22.317Z,7.00
2022-11-16T14:49:49.773Z,6.97
2022-11-16T14:52:20.331Z,6.96
2022-11-16T14:54:54.000Z,6.71
2022-11-16T14:57:23.453Z,6.85
2022-11-16T15:00:09.023Z,6.87
2022-11-16T15:02:36.466Z,6.82
2022-11-16T15:05:03.408Z,6.79
2022-11-16T15:07:30.716Z,6.48
2022-11-16T15:10:00.294Z,6.84
2022-11-16T15:12:42.764Z,6.81
2022-11-16T15:15:17.018Z,6.74
2022-11-16T15:17:46.992Z,6.86
2022-11-16T15:20:13.676Z,6.86
2022-11-16T15:22:43.768Z,6.83
2022-11-16T15:25:29.751Z,6.79
2022-11-16T15:27:59.016Z,6.67
2022-11-16T15:30:27.740Z,6.68
2022-11-16T15:32:54.992Z,6.69
2022-11-16T15:35:29.653Z,6.60
2022-11-16T15:38:02.645Z,6.74
2022-11-16T15:40:29.871Z,6.65
2022-11-16T15:43:00.673Z,6.76
2022-11-16T15:45:28.451Z,6.40
2022-11-16T15:47:58.971Z,6.64
2022-11-16T15:50:25.998Z,6.63
2022-11-16T15:52:55.501Z,6.63
2022-11-16T15:55:40.756Z,6.62
2022-11-16T15:58:26.774Z,6.67
2022-11-16T16:00:54.837Z,6.64
2022-11-16T16:03:26.944Z,6.66
2022-11-16T16:05:54.953Z,6.64
2022-11-16T16:08:39.377Z,6.64
2022-11-16T16:11:27.371Z,6.56
2022-11-16T16:14:02.745Z,6.60
2022-11-16T16:16:37.813Z,6.59
2022-11-16T16:19:23.759Z,6.57
2022-11-16T16:21:50.823Z,6.52
2022-11-16T16:24:39.004Z,6.59
2022-11-16T16:27:27.001Z,6.53
2022-11-16T16:29:56.009Z,6.54
2022-11-16T16:32:34.870Z,6.51
2022-11-16T16:35:07.284Z,6.45
2022-11-16T16:37:36.181Z,6.50
2022-11-16T16:40:03.063Z,6.40
2022-11-16T16:42:37.723Z,6.44
2022-11-16T16:45:04.915Z,6.42
2022-11-16T16:47:33.696Z,6.48
2022-11-16T16:50:01.778Z,6.48
2022-11-16T16:52:29.177Z,6.54
2022-11-16T16:54:56.084Z,6.55
2022-11-16T16:57:23.152Z,6.36
2022-11-16T16:59:50.398Z,6.32
2022-11-16T17:02:17.578Z,6.29
2022-11-16T17:04:46.626Z,6.39
2022-11-16T17:07:13.586Z,6.40
2022-11-16T17:09:41.022Z,6.39
2022-11-16T17:12:08.785Z,6.36
2022-11-16T17:14:36.105Z,6.47
2022-11-16T17:17:04.811Z,6.42
2022-11-16T17:19:31.893Z,6.38
2022-11-16T17:21:59.910Z,6.42
2022-11-16T17:24:30.753Z,6.50
2022-11-16T17:26:58.170Z,6.56
2022-11-16T17:29:25.767Z,6.48
2022-11-16T17:31:53.813Z,6.57
2022-11-16T17:34:21.151Z,6.57
2022-11-16T17:36:48.203Z,6.36
2022-11-16T17:39:16.733Z,6.59
2022-11-16T17:41:48.838Z,6.59
2022-11-16T17:44:21.665Z,6.43
2022-11-16T17:46:51.783Z,6.49
2022-11-16T17:49:20.772Z,6.63
2022-11-16T17:51:48.171Z,6.62
2022-11-16T17:54:15.546Z,6.66
2022-11-16T17:56:42.917Z,6.67
2022-11-16T17:59:10.132Z,6.70
2022-11-16T18:01:37.375Z,6.56
2022-11-16T18:04:05.332Z,6.68
2022-11-16T18:06:33.381Z,6.61
2022-11-16T18:09:01.003Z,6.68
2022-11-16T18:11:28.980Z,6.58
2022-11-16T18:14:01.202Z,6.63
2022-11-16T18:16:33.314Z,6.61
2022-11-16T18:19:07.485Z,6.54
2022-11-16T18:21:44.581Z,6.50
2022-11-16T18:24:14.420Z,6.55
2022-11-16T18:26:43.001Z,6.56
2022-11-16T18:29:16.522Z,6.67
2022-11-16T18:31:44.068Z,6.54
2022-11-16T18:34:16.600Z,6.52
2022-11-16T18:36:49.398Z,6.71
2022-11-16T18:39:18.356Z,6.69
2022-11-16T18:41:54.559Z,6.74
2022-11-16T18:44:23.083Z,6.68
2022-11-16T18:46:50.901Z,6.59
2022-11-16T18:49:18.615Z,6.62
2022-11-16T18:51:46.042Z,6.56
2022-11-16T18:54:13.493Z,6.61
2022-11-16T18:56:41.136Z,6.56
2022-11-16T18:59:08.732Z,6.65
2022-11-16T19:01:40.404Z,6.72
2022-11-16T19:04:08.935Z,6.74
2022-11-16T19:06:35.983Z,6.73
2022-11-16T19:09:05.505Z,6.58
2022-11-16T19:11:34.683Z,6.53
2022-11-16T19:14:05.318Z,6.71
2022-11-16T19:16:33.172Z,6.73
2022-11-16T19:19:03.259Z,6.70
2022-11-16T19:21:31.138Z,6.61
2022-11-16T19:24:00.203Z,6.34
2022-11-16T19:26:29.074Z,6.54
2022-11-16T19:28:56.918Z,6.63
2022-11-16T19:31:29.701Z,6.66
2022-11-16T19:34:02.768Z,6.54
2022-11-16T19:36:32.249Z,6.43
2022-11-16T19:38:59.639Z,6.50
2022-11-16T19:41:28.873Z,6.59
2022-11-16T19:44:00.728Z,6.62
2022-11-16T19:46:30.735Z,6.60
2022-11-16T19:48:59.861Z,6.54
2022-11-16T19:51:30.206Z,6.51
2022-11-16T19:53:58.893Z,6.55
2022-11-16T19:56:27.634Z,6.51
2022-11-16T19:58:55.259Z,6.56
2022-11-16T20:01:28.239Z,6.51
2022-11-16T20:03:59.017Z,6.54
2022-11-16T20:06:29.590Z,6.54
2022-11-16T20:09:01.193Z,6.54
2022-11-16T20:11:30.992Z,6.55
2022-11-16T20:13:59.792Z,6.60
2022-11-16T20:16:37.024Z,6.55
2022-11-16T20:19:06.501Z,6.45
2022-11-16T20:21:37.145Z,6.49
2022-11-16T20:24:07.110Z,6.59
2022-11-16T20:26:38.104Z,6.53
2022-11-16T20:29:06.359Z,6.48
2022-11-16T20:31:34.770Z,6.52
2022-11-16T20:34:05.605Z,6.41
2022-11-16T20:36:34.104Z,6.55
2022-11-16T20:39:02.103Z,6.53
2022-11-16T20:41:31.717Z,6.58
2022-11-16T20:44:00.985Z,6.53
2022-11-16T20:46:30.997Z,6.49
2022-11-16T20:49:00.459Z,6.49
2022-11-16T20:51:29.183Z,6.55
2022-11-16T20:54:07.631Z,6.38
2022-11-16T20:56:35.671Z,6.39
2022-11-16T20:59:03.184Z,6.38
2022-11-16T21:01:32.861Z,6.54
2022-11-16T21:04:02.379Z,6.50
2022-11-16T21:06:29.567Z,6.56
2022-11-16T21:08:56.668Z,6.57
2022-11-16T21:11:27.073Z,6.59
2022-11-16T21:14:12.582Z,6.54
2022-11-16T21:16:39.514Z,6.44
2022-11-16T21:19:07.325Z,6.57
2022-11-16T21:21:34.604Z,6.58
2022-11-16T21:24:01.884Z,6.62
2022-11-16T21:26:30.824Z,6.63
2022-11-16T21:28:58.789Z,6.63
2022-11-16T21:31:28.338Z,6.71
2022-11-16T21:33:55.558Z,6.71
2022-11-16T21:36:24.459Z,6.72
2022-11-16T21:38:51.984Z,6.71
2022-11-16T21:41:20.522Z,6.74
2022-11-16T21:43:47.421Z,6.53
2022-11-16T21:46:21.871Z,6.75
2022-11-16T21:48:51.233Z,6.81
2022-11-16T21:51:20.158Z,6.87
2022-11-16T21:53:47.353Z,6.77
2022-11-16T21:56:16.773Z,6.71
2022-11-16T21:58:44.001Z,6.69
2022-11-16T22:01:12.259Z,6.70
2022-11-16T22:03:39.412Z,6.78
2022-11-16T22:06:26.301Z,6.76
2022-11-16T22:08:53.071Z,6.71
2022-11-16T22:11:22.217Z,6.82
2022-11-16T22:13:50.422Z,6.61
2022-11-16T22:16:19.711Z,6.76
2022-11-16T22:18:46.691Z,6.44
2022-11-16T22:21:13.625Z,6.82
2022-11-16T22:23:40.788Z,6.79
2022-11-16T22:26:11.127Z,6.86
2022-11-16T22:28:38.128Z,6.65
2022-11-16T22:31:22.789Z,6.61
2022-11-16T22:33:52.664Z,6.63
2022-11-16T22:36:19.420Z,6.71
2022-11-16T22:38:46.115Z,6.71
2022-11-16T22:41:12.789Z,6.67
2022-11-16T22:43:39.959Z,6.64
2022-11-16T22:46:06.930Z,6.66
2022-11-16T22:48:35.867Z,6.63
2022-11-16T22:51:24.216Z,6.87
2022-11-16T22:53:55.867Z,6.83
2022-11-16T22:56:23.034Z,6.84
2022-11-16T22:58:50.364Z,6.90
2022-11-16T23:01:17.910Z,6.89
2022-11-16T23:03:45.148Z,6.82
2022-11-16T23:06:12.460Z,6.71
2022-11-16T23:08:40.310Z,6.73
2022-11-16T23:11:32.040Z,6.77
2022-11-16T23:14:17.890Z,6.85
2022-11-16T23:16:45.431Z,6.80
2022-11-16T23:19:33.287Z,6.70
2022-11-16T23:22:18.643Z,6.66
2022-11-16T23:25:03.993Z,6.71
2022-11-16T23:27:45.043Z,6.87
2022-11-16T23:30:13.352Z,6.74
2022-11-16T23:32:41.161Z,6.83
2022-11-16T23:35:09.019Z,6.91
2022-11-16T23:37:52.690Z,6.72
2022-11-16T23:40:19.841Z,6.78
2022-11-16T23:43:05.192Z,6.77
2022-11-16T23:45:31.956Z,6.72
2022-11-16T23:47:58.760Z,6.78
2022-11-16T23:50:25.465Z,6.75
2022-11-16T23:52:52.194Z,6.72
2022-11-16T23:55:18.992Z,6.87
2022-11-16T23:57:45.667Z,6.80
